Time;durP1;ratioP1;P1;durP2;ratioP2;P2;SDS_P1;SDS_P2;PMS_P1;PMS_P2;Temp;Humidity;BMP_temperature;BMP_pressure;BME280_temperature;BME280_humidity;BME280_pressure;Samples;Min_cycle;Max_cycle;Signal;HPM_P1;HPM_P2
2024/01/12 00:02:09;;;;;;;1.30;1.30;;;;;;;-2.68;88.01;98720.13;4970560;28;20050;-74
2024/01/12 00:04:37;;;;;;;1.30;1.30;;;;;;;-2.65;88.15;98712.13;4974911;28;20047;-73
2024/01/12 00:07:06;;;;;;;1.33;1.33;;;;;;;-2.61;87.59;98711.03;4975996;28;20043;-74
2024/01/12 00:09:34;;;;;;;1.10;1.10;;;;;;;-2.60;87.94;98714.50;4979139;28;20134;-74
2024/01/12 00:12:02;;;;;;;1.02;1.02;;;;;;;-2.64;88.68;98707.75;4974519;28;20082;-74
2024/01/12 00:14:29;;;;;;;1.35;1.35;;;;;;;-2.64;88.78;98713.81;4975730;28;20051;-74
2024/01/12 00:16:57;;;;;;;1.05;1.05;;;;;;;-2.62;88.44;98717.19;4972150;28;20054;-73
2024/01/12 00:19:24;;;;;;;1.23;1.23;;;;;;;-2.64;89.02;98705.97;4975174;28;20050;-74
2024/01/12 00:21:52;;;;;;;0.40;0.40;;;;;;;-2.53;88.56;98714.97;4962119;28;20046;-74
2024/01/12 00:24:21;;;;;;;0.38;0.38;;;;;;;-2.58;88.50;98708.22;4974918;28;20469;-73
2024/01/12 00:26:49;;;;;;;1.20;1.20;;;;;;;-2.54;88.21;98714.13;4973858;28;20062;-73
2024/01/12 00:29:17;;;;;;;0.40;0.40;;;;;;;-2.53;88.45;98717.59;4974649;28;20129;-74
2024/01/12 00:31:45;;;;;;;1.00;1.00;;;;;;;-2.53;88.64;98714.97;4967590;28;20053;-74
2024/01/12 00:34:13;;;;;;;1.15;1.15;;;;;;;-2.56;88.87;98709.91;4971823;28;20043;-73
2024/01/12 00:36:41;;;;;;;1.02;1.02;;;;;;;-2.51;88.80;98710.53;4977635;28;20046;-74
2024/01/12 00:39:08;;;;;;;1.83;1.83;;;;;;;-2.49;88.62;98708.66;4967768;28;20053;-73
2024/01/12 00:41:37;;;;;;;0.98;0.98;;;;;;;-2.49;88.85;98713.91;4960195;28;20057;-74
2024/01/12 00:44:07;;;;;;;1.38;1.38;;;;;;;-2.49;89.01;98714.72;4974020;28;20053;-73
2024/01/12 00:46:34;;;;;;;0.88;0.88;;;;;;;-2.50;88.96;98713.06;4977345;28;20340;-73
2024/01/12 00:49:02;;;;;;;1.05;1.05;;;;;;;-2.53;88.84;98699.31;4971549;28;20129;-73
2024/01/12 00:51:30;;;;;;;0.40;0.35;;;;;;;-2.56;89.67;98710.75;4970699;28;20463;-72
2024/01/12 00:53:57;;;;;;;1.30;1.30;;;;;;;-2.49;89.62;98719.13;4972404;28;20053;-73
2024/01/12 00:56:26;;;;;;;0.40;0.40;;;;;;;-2.41;88.57;98722.16;4967106;28;20458;-73
2024/01/12 00:58:55;;;;;;;0.77;0.77;;;;;;;-2.44;89.25;98711.84;4972813;28;20054;-73
2024/01/12 01:01:23;;;;;;;0.95;0.95;;;;;;;-2.50;89.28;98725.28;4967191;28;20046;-73
2024/01/12 01:03:51;;;;;;;1.20;1.20;;;;;;;-2.48;89.43;98726.84;4972031;28;20047;-73
2024/01/12 01:06:18;;;;;;;0.45;0.45;;;;;;;-2.50;89.71;98718.28;4973108;28;20457;-73
2024/01/12 01:08:48;;;;;;;1.15;1.15;;;;;;;-2.48;89.58;98724.25;4971198;28;20046;-73
2024/01/12 01:11:15;;;;;;;1.13;1.13;;;;;;;-2.47;89.87;98718.09;4971628;28;20038;-73
2024/01/12 01:13:43;;;;;;;0.30;0.30;;;;;;;-2.46;89.83;98724.16;4975128;28;20371;-73
2024/01/12 01:16:12;;;;;;;1.35;1.35;;;;;;;-2.49;90.23;98724.34;4972300;28;20602;-73
2024/01/12 01:18:40;;;;;;;1.20;1.20;;;;;;;-2.49;90.26;98726.97;4974635;28;20148;-73
2024/01/12 01:21:07;;;;;;;1.75;1.75;;;;;;;-2.52;90.42;98720.13;4974461;28;20055;-73
2024/01/12 01:23:35;;;;;;;1.13;1.13;;;;;;;-2.48;90.13;98728.63;4967794;28;20164;-73
2024/01/12 01:26:03;;;;;;;1.15;1.15;;;;;;;-2.50;90.15;98736.56;4970218;28;20047;-73
2024/01/12 01:28:30;;;;;;;1.08;1.08;;;;;;;-2.48;90.40;98739.06;4967576;28;20533;-73
2024/01/12 01:30:58;;;;;;;1.42;1.42;;;;;;;-2.51;89.91;98739.25;4969078;28;20050;-73
2024/01/12 01:33:27;;;;;;;0.95;0.95;;;;;;;-2.54;90.27;98728.97;4965620;28;20078;-73
2024/01/12 01:35:55;;;;;;;1.17;1.17;;;;;;;-2.50;90.54;98730.50;4959377;28;20097;-73
2024/01/12 01:38:22;;;;;;;0.47;0.47;;;;;;;-2.51;90.57;98740.09;4971143;28;20046;-72
2024/01/12 01:40:50;;;;;;;1.02;1.02;;;;;;;-2.48;90.50;98729.47;4974437;28;20042;-73
2024/01/12 01:43:18;;;;;;;1.30;1.30;;;;;;;-2.47;90.47;98738.16;4961129;28;20506;-73
2024/01/12 01:45:45;;;;;;;1.65;1.65;;;;;;;-2.39;90.10;98730.75;4971191;28;20042;-73
2024/01/12 01:48:13;;;;;;;0.90;0.90;;;;;;;-2.40;89.65;98734.28;4964881;28;20090;-73
2024/01/12 01:50:43;;;;;;;1.50;1.50;;;;;;;-2.43;89.59;98734.44;4971407;28;20065;-73
2024/01/12 01:53:11;;;;;;;1.10;1.10;;;;;;;-2.45;89.97;98731.91;4970046;28;20504;-73
2024/01/12 01:55:38;;;;;;;0.93;0.93;;;;;;;-2.44;89.87;98732.75;4963257;28;20042;-73
2024/01/12 01:58:07;;;;;;;0.40;0.40;;;;;;;-2.41;89.99;98727.38;4972276;28;20398;-73
2024/01/12 02:00:35;;;;;;;1.15;1.15;;;;;;;-2.43;89.68;98729.22;4967104;28;20133;-73
2024/01/12 02:03:03;;;;;;;1.42;1.42;;;;;;;-2.42;90.27;98731.75;4967772;28;20122;-74
2024/01/12 02:05:31;;;;;;;0.98;0.98;;;;;;;-2.41;89.94;98728.22;4966944;28;20051;-73
2024/01/12 02:08:00;;;;;;;1.20;1.20;;;;;;;-2.40;90.09;98742.97;4969344;28;20145;-73
2024/01/12 02:10:28;;;;;;;1.20;1.20;;;;;;;-2.42;89.86;98726.53;4971823;28;20049;-73
2024/01/12 02:12:56;;;;;;;1.33;1.33;;;;;;;-2.41;89.77;98740.44;4964494;28;20074;-74
2024/01/12 02:15:24;;;;;;;1.42;1.42;;;;;;;-2.40;89.88;98748.19;4963745;28;20051;-73
2024/01/12 02:17:51;;;;;;;0.98;0.98;;;;;;;-2.37;90.07;98740.16;4968323;28;20057;-74
2024/01/12 02:20:19;;;;;;;0.95;0.95;;;;;;;-2.35;89.92;98742.69;4970129;28;20522;-73
2024/01/12 02:22:48;;;;;;;1.05;1.05;;;;;;;-2.37;89.65;98752.38;4975675;28;20045;-74
2024/01/12 02:25:16;;;;;;;0.55;0.55;;;;;;;-2.33;89.37;98743.47;4956452;28;20391;-74
2024/01/12 02:27:47;;;;;;;0.40;0.40;;;;;;;-2.32;89.43;98753.00;4972893;28;20362;-73
2024/01/12 02:30:15;;;;;;;1.05;1.05;;;;;;;-2.33;89.75;98749.53;4969133;28;20047;-74
2024/01/12 02:32:42;;;;;;;1.20;1.20;;;;;;;-2.36;89.80;98754.06;4972297;28;20034;-74
2024/01/12 02:35:10;;;;;;;1.00;1.00;;;;;;;-2.32;89.88;98755.59;4961147;28;20050;-73
2024/01/12 02:37:37;;;;;;;1.20;1.20;;;;;;;-2.34;89.50;98762.69;4969728;28;20134;-74
2024/01/12 02:40:08;;;;;;;1.10;1.10;;;;;;;-2.33;89.58;98765.22;4973470;28;20074;-74
2024/01/12 02:42:35;;;;;;;1.25;1.25;;;;;;;-2.34;89.48;98766.13;4963215;28;20045;-73
2024/01/12 02:45:03;;;;;;;0.90;0.90;;;;;;;-2.28;89.52;98764.94;4951855;28;20055;-74
2024/01/12 02:47:31;;;;;;;1.20;1.20;;;;;;;-2.27;89.27;98762.25;4971982;28;20057;-74
2024/01/12 02:49:59;;;;;;;0.93;0.93;;;;;;;-2.26;89.45;98761.31;4969868;28;20525;-74
2024/01/12 02:52:26;;;;;;;1.00;1.00;;;;;;;-2.30;89.74;98761.59;4959715;28;20126;-73
2024/01/12 02:54:54;;;;;;;1.35;1.35;;;;;;;-2.40;90.14;98765.66;4965095;28;20070;-73
2024/01/12 02:57:23;;;;;;;1.02;1.02;;;;;;;-2.42;90.25;98757.88;4972295;28;20125;-73
2024/01/12 02:59:51;;;;;;;0.85;0.85;;;;;;;-2.44;90.41;98751.91;4969273;28;20050;-73
2024/01/12 03:02:18;;;;;;;1.25;1.25;;;;;;;-2.40;90.02;98753.44;4953943;28;20053;-73
2024/01/12 03:04:46;;;;;;;1.05;1.05;;;;;;;-2.42;90.69;98755.28;4970336;28;20070;-73
2024/01/12 03:07:14;;;;;;;0.88;0.88;;;;;;;-2.46;90.31;98748.53;4967396;28;20054;-73
2024/01/12 03:09:41;;;;;;;0.40;0.40;;;;;;;-2.51;91.29;98745.34;4966576;28;20493;-72
2024/01/12 03:12:09;;;;;;;1.05;1.05;;;;;;;-2.49;91.34;98742.63;4967978;28;20122;-72
2024/01/12 03:14:38;;;;;;;1.02;1.02;;;;;;;-2.47;91.23;98739.00;4971302;28;20042;-73
2024/01/12 03:17:05;;;;;;;1.58;1.58;;;;;;;-2.36;90.25;98730.56;4977321;28;20046;-73
2024/01/12 03:19:33;;;;;;;1.17;1.17;;;;;;;-2.46;90.87;98732.84;4972879;28;20066;-72
2024/01/12 03:22:01;;;;;;;1.02;1.02;;;;;;;-2.47;91.07;98733.75;4971104;28;20047;-73
2024/01/12 03:24:28;;;;;;;1.42;1.42;;;;;;;-2.44;90.98;98731.00;4968101;28;20098;-73
2024/01/12 03:26:56;;;;;;;1.00;1.00;;;;;;;-2.43;90.77;98729.22;4969951;28;20501;-73
2024/01/12 03:29:24;;;;;;;1.25;1.25;;;;;;;-2.47;90.75;98725.09;4969968;28;20050;-72
2024/01/12 03:31:53;;;;;;;1.20;1.20;;;;;;;-2.44;90.70;98727.53;4967997;28;20061;-72
2024/01/12 03:34:21;;;;;;;0.85;0.85;;;;;;;-2.49;90.68;98730.38;4970443;28;20521;-72
2024/01/12 03:36:48;;;;;;;1.48;1.48;;;;;;;-2.50;90.96;98731.34;4950313;28;20050;-72
2024/01/12 03:39:16;;;;;;;1.25;1.25;;;;;;;-2.52;90.39;98724.50;4970454;28;20130;-73
2024/01/12 03:41:44;;;;;;;1.00;1.00;;;;;;;-2.50;90.58;98725.28;4966097;28;20125;-72
2024/01/12 03:44:11;;;;;;;1.48;1.48;;;;;;;-2.46;90.65;98724.16;4968684;28;20118;-73
2024/01/12 03:46:39;;;;;;;0.85;0.85;;;;;;;-2.51;90.98;98718.38;4959846;28;20042;-73
2024/01/12 03:49:08;;;;;;;1.38;1.38;;;;;;;-2.47;91.31;98723.31;4969292;28;20558;-73
2024/01/12 03:51:36;;;;;;;0.28;0.28;;;;;;;-2.49;91.18;98717.31;4963134;28;20051;-72
2024/01/12 03:54:04;;;;;;;1.17;1.17;;;;;;;-2.52;91.26;98727.13;4964081;28;20054;-72
2024/01/12 03:56:32;;;;;;;0.52;0.52;;;;;;;-2.51;91.11;98727.03;4966236;28;20046;-72
2024/01/12 03:58:59;;;;;;;0.32;0.32;;;;;;;-2.50;90.81;98723.50;4965081;28;21267;-72
2024/01/12 04:01:27;;;;;;;1.23;1.23;;;;;;;-2.44;90.10;98722.31;4968681;28;20053;-73
2024/01/12 04:03:54;;;;;;;1.33;1.33;;;;;;;-2.45;90.66;98728.47;4962801;28;20043;-73
2024/01/12 04:06:23;;;;;;;0.93;0.93;;;;;;;-2.50;90.78;98725.28;4965648;28;20043;-72
2024/01/12 04:08:51;;;;;;;1.50;1.50;;;;;;;-2.52;91.02;98729.75;4972972;28;20042;-72
2024/01/12 04:11:22;;;;;;;1.25;1.25;;;;;;;-2.43;90.69;98726.59;4968947;28;20047;-72
2024/01/12 04:13:50;;;;;;;1.25;1.25;;;;;;;-2.43;90.72;98730.06;4970526;28;20053;-72
2024/01/12 04:16:17;;;;;;;0.35;0.35;;;;;;;-2.42;90.28;98726.53;4950187;28;20395;-72
2024/01/12 04:18:45;;;;;;;2.50;2.40;;;;;;;-2.40;90.36;98723.84;4963645;28;20134;-72
2024/01/12 04:21:13;;;;;;;1.13;1.13;;;;;;;-2.39;90.54;98718.50;4966253;28;20058;-72
2024/01/12 04:23:42;;;;;;;1.05;1.05;;;;;;;-2.31;90.15;98715.47;4968224;28;20046;-73
2024/01/12 04:26:10;;;;;;;1.35;1.35;;;;;;;-2.36;90.14;98717.47;4969536;28;20054;-73
2024/01/12 04:28:37;;;;;;;0.90;0.90;;;;;;;-2.35;90.03;98711.34;4968280;28;20514;-73
2024/01/12 04:31:05;;;;;;;0.90;0.90;;;;;;;-2.38;90.14;98714.94;4963045;28;20139;-73
2024/01/12 04:33:34;;;;;;;1.10;1.10;;;;;;;-2.36;90.64;98713.09;4965617;28;20058;-73
2024/01/12 04:36:01;;;;;;;1.15;1.15;;;;;;;-2.36;90.63;98717.47;4970956;28;20070;-73
2024/01/12 04:38:29;;;;;;;1.52;1.52;;;;;;;-2.30;90.21;98704.94;4962130;28;20347;-73
2024/01/12 04:40:58;;;;;;;1.10;1.10;;;;;;;-2.33;90.29;98714.72;4966491;28;20118;-72
2024/01/12 04:43:26;;;;;;;1.25;1.25;;;;;;;-2.36;90.18;98714.88;4967710;28;20086;-73
2024/01/12 04:45:53;;;;;;;1.20;1.20;;;;;;;-2.37;90.35;98710.56;4954382;28;20047;-74
2024/01/12 04:48:21;;;;;;;1.60;1.60;;;;;;;-2.30;90.50;98712.78;4970497;28;20055;-74
2024/01/12 04:50:48;;;;;;;0.55;0.55;;;;;;;-2.28;90.03;98710.03;4968290;28;20047;-74
2024/01/12 04:53:15;;;;;;;;;;;;;;;-2.30;90.11;98711.94;4970946;28;20054;-74
2024/01/12 04:55:43;;;;;;;0.90;0.90;;;;;;;-2.36;90.45;98701.81;4973978;28;19926;-73
2024/01/12 04:58:12;;;;;;;1.40;1.40;;;;;;;-2.42;90.72;98707.38;4966675;28;20047;-72
2024/01/12 05:00:40;;;;;;;1.00;1.00;;;;;;;-2.45;90.71;98710.16;4973393;28;20038;-73
2024/01/12 05:03:07;;;;;;;1.20;1.20;;;;;;;-2.44;91.58;98714.47;4951804;28;20130;-73
2024/01/12 05:05:36;;;;;;;1.15;1.15;;;;;;;-2.41;91.29;98704.69;4973151;28;20101;-73
2024/01/12 05:08:04;;;;;;;1.42;1.42;;;;;;;-2.40;90.94;98706.38;4971254;28;20059;-73
2024/01/12 05:10:32;;;;;;;0.98;0.98;;;;;;;-2.33;91.05;98712.94;4972535;28;20043;-72
2024/01/12 05:12:59;;;;;;;0.40;0.40;;;;;;;-2.24;90.96;98706.34;4970231;28;20051;-73
2024/01/12 05:15:28;;;;;;;0.30;0.30;;;;;;;-2.25;90.90;98705.50;4974353;28;20490;-74
2024/01/12 05:17:56;;;;;;;0.85;0.85;;;;;;;-2.20;90.51;98701.78;4973185;28;20047;-73
2024/01/12 05:20:25;;;;;;;0.30;0.30;;;;;;;-2.17;90.44;98706.81;4970045;28;20585;-73
2024/01/12 05:22:52;;;;;;;1.30;1.30;;;;;;;-2.10;90.25;98701.16;4956703;28;20058;-74
2024/01/12 05:25:20;;;;;;;1.20;1.20;;;;;;;-2.02;90.20;98695.50;4971183;28;20061;-73
2024/01/12 05:27:48;;;;;;;1.25;1.25;;;;;;;-1.99;89.46;98701.41;4973206;28;20046;-73
2024/01/12 05:30:15;;;;;;;0.85;0.85;;;;;;;-2.06;87.92;98694.81;4969548;28;20043;-73
2024/01/12 05:32:45;;;;;;;1.17;1.17;;;;;;;-2.10;87.54;98687.25;4970497;28;20054;-73
2024/01/12 05:35:13;;;;;;;1.15;1.15;;;;;;;-2.07;87.50;98685.28;4970885;28;20039;-73
2024/01/12 05:37:42;;;;;;;0.82;0.82;;;;;;;-2.04;87.23;98679.88;4973932;28;20074;-72
2024/01/12 05:40:11;;;;;;;1.20;1.20;;;;;;;-1.99;87.72;98679.63;4972890;28;20053;-72
2024/01/12 05:42:39;;;;;;;0.30;0.30;;;;;;;-1.94;87.45;98686.25;4965457;28;20375;-73
2024/01/12 05:45:07;;;;;;;0.88;0.88;;;;;;;-2.01;87.09;98687.56;4969505;28;20047;-72
2024/01/12 05:47:37;;;;;;;1.27;1.27;;;;;;;-2.02;87.45;98687.63;4968189;28;20056;-72
2024/01/12 05:50:07;;;;;;;0.70;0.70;;;;;;;-1.92;87.97;98692.25;4970328;28;20409;-73
2024/01/12 05:52:35;;;;;;;1.10;1.10;;;;;;;-1.89;87.40;98697.31;4970171;28;20529;-72
2024/01/12 05:55:03;;;;;;;0.40;0.40;;;;;;;-1.85;87.52;98704.03;4970087;28;20256;-73
2024/01/12 05:57:30;;;;;;;0.30;0.30;;;;;;;-1.84;86.94;98702.25;4969040;28;20566;-73
2024/01/12 05:59:58;;;;;;;0.85;0.85;;;;;;;-1.80;87.62;98700.31;4968692;28;20062;-72
2024/01/12 06:02:26;;;;;;;0.85;0.85;;;;;;;-1.71;87.24;98703.22;4966795;28;20137;-72
2024/01/12 06:04:53;;;;;;;0.98;0.98;;;;;;;-1.72;86.47;98703.31;4973106;28;20109;-74
2024/01/12 06:07:22;;;;;;;1.27;1.27;;;;;;;-1.67;86.32;98703.91;4966937;28;20047;-74
2024/01/12 06:09:50;;;;;;;0.88;0.88;;;;;;;-1.74;86.26;98700.78;4970200;28;20478;-74
2024/01/12 06:12:17;;;;;;;1.13;1.13;;;;;;;-1.94;86.34;98708.94;4966262;28;20129;-74
2024/01/12 06:14:46;;;;;;;1.05;1.05;;;;;;;-1.93;87.03;98703.63;4971079;28;20057;-74
2024/01/12 06:17:15;;;;;;;1.33;1.33;;;;;;;-2.01;86.97;98707.63;4962954;28;20061;-74
2024/01/12 06:19:43;;;;;;;1.35;1.35;;;;;;;-1.94;87.20;98720.25;4968003;28;20042;-74
2024/01/12 06:22:10;;;;;;;0.93;0.93;;;;;;;-1.87;86.71;98718.97;4966060;28;20521;-74
2024/01/12 06:24:39;;;;;;;1.17;1.17;;;;;;;-1.81;86.29;98715.16;4974277;28;20313;-73
2024/01/12 06:27:07;;;;;;;0.98;0.98;;;;;;;-1.84;86.09;98707.47;4968486;28;20142;-73
2024/01/12 06:29:36;;;;;;;0.95;0.95;;;;;;;-1.86;86.26;98707.56;4969277;28;20051;-73
2024/01/12 06:32:04;;;;;;;0.93;0.93;;;;;;;-1.83;86.03;98708.31;4966895;28;20054;-73
2024/01/12 06:34:32;;;;;;;0.98;0.98;;;;;;;-1.81;86.37;98709.94;4968297;28;20118;-73
2024/01/12 06:36:59;;;;;;;0.82;0.82;;;;;;;-1.77;86.36;98703.59;4963787;28;20059;-73
2024/01/12 06:39:27;;;;;;;1.08;1.08;;;;;;;-1.68;85.84;98702.22;4964324;28;20046;-73
2024/01/12 06:41:58;;;;;;;1.20;1.20;;;;;;;-1.82;86.16;98707.41;4964075;28;20042;-73
2024/01/12 06:44:26;;;;;;;1.17;1.17;;;;;;;-1.84;86.13;98712.72;4962430;28;20047;-73
2024/01/12 06:46:54;;;;;;;0.85;0.85;;;;;;;-1.85;86.43;98714.50;4967040;28;20058;-73
2024/01/12 06:49:22;;;;;;;0.38;0.38;;;;;;;-1.78;86.73;98722.00;4966768;28;20427;-73
2024/01/12 06:51:49;;;;;;;0.35;0.35;;;;;;;-1.73;86.41;98720.78;4962628;28;20493;-73
2024/01/12 06:54:18;;;;;;;0.20;0.20;;;;;;;-1.68;86.30;98721.38;4961055;28;20467;-73
2024/01/12 06:56:47;;;;;;;0.98;0.98;;;;;;;-1.67;86.63;98724.81;4967328;28;20114;-73
2024/01/12 06:59:15;;;;;;;1.08;1.08;;;;;;;-1.62;86.40;98723.59;4962203;28;20057;-73
2024/01/12 07:01:43;;;;;;;1.05;1.05;;;;;;;-1.57;86.17;98725.97;4967391;28;20070;-73
2024/01/12 07:04:11;;;;;;;1.08;1.08;;;;;;;-1.64;85.46;98728.09;4967280;28;20050;-73
2024/01/12 07:06:39;;;;;;;0.80;0.80;;;;;;;-1.65;85.86;98728.16;4960917;28;20051;-73
2024/01/12 07:09:11;;;;;;;1.05;1.05;;;;;;;-1.70;85.96;98725.84;4964541;28;20061;-73
2024/01/12 07:11:41;;;;;;;0.20;0.20;;;;;;;-1.70;85.99;98720.59;4964637;28;20402;-73
2024/01/12 07:14:08;;;;;;;0.35;0.35;;;;;;;-1.71;85.92;98723.31;4968388;28;20351;-73
2024/01/12 07:16:38;;;;;;;0.80;0.80;;;;;;;-1.68;86.29;98731.00;4972820;28;20121;-73
2024/01/12 07:19:05;;;;;;;1.20;1.20;;;;;;;-1.71;85.72;98732.00;4966511;28;20529;-73
2024/01/12 07:21:33;;;;;;;0.75;0.75;;;;;;;-1.72;86.15;98738.16;4968598;28;20043;-73
2024/01/12 07:24:01;;;;;;;0.90;0.90;;;;;;;-1.70;86.27;98736.31;4973777;28;20053;-73
2024/01/12 07:26:29;;;;;;;0.75;0.75;;;;;;;-1.67;86.25;98733.53;4952202;28;20053;-74
2024/01/12 07:28:57;;;;;;;1.00;1.00;;;;;;;-1.73;85.76;98733.84;4971428;28;20118;-74
2024/01/12 07:31:25;;;;;;;0.85;0.85;;;;;;;-1.70;86.29;98735.47;4966017;28;20055;-74
2024/01/12 07:33:54;;;;;;;1.25;1.25;;;;;;;-1.67;86.07;98725.66;4969621;28;20053;-73
2024/01/12 07:36:22;;;;;;;1.52;1.52;;;;;;;-1.66;86.31;98723.91;4967857;28;20039;-73
2024/01/12 07:38:49;;;;;;;0.30;0.30;;;;;;;-1.72;86.04;98719.84;4962838;28;20470;-74
2024/01/12 07:41:17;;;;;;;1.27;1.27;;;;;;;-1.77;86.56;98723.69;4959957;28;20051;-73
2024/01/12 07:43:45;;;;;;;0.85;0.85;;;;;;;-1.76;86.53;98730.56;4961704;28;20109;-73
2024/01/12 07:46:16;;;;;;;1.10;1.10;;;;;;;-1.73;86.89;98722.56;4970788;28;20070;-74
2024/01/12 07:48:43;;;;;;;1.23;1.23;;;;;;;-1.75;87.07;98720.03;4962882;28;20121;-74
2024/01/12 07:51:12;;;;;;;0.85;0.85;;;;;;;-1.80;87.46;98726.47;4970148;28;20498;-74
2024/01/12 07:53:41;;;;;;;0.80;0.80;;;;;;;-1.83;87.60;98726.63;4968645;28;20049;-73
2024/01/12 07:56:10;;;;;;;0.88;0.88;;;;;;;-1.88;88.12;98724.31;4964860;28;20483;-73
2024/01/12 07:58:37;;;;;;;1.02;1.02;;;;;;;-1.94;88.27;98730.72;4966429;28;20051;-73
2024/01/12 08:01:06;;;;;;;1.23;1.23;;;;;;;-1.95;88.37;98731.66;4965635;28;20518;-74
2024/01/12 08:03:33;;;;;;;0.75;0.75;;;;;;;-1.98;88.72;98731.84;4969010;28;20053;-74
2024/01/12 08:06:01;;;;;;;1.10;1.10;;;;;;;-1.99;89.46;98726.69;4968301;28;20107;-74
2024/01/12 08:08:30;;;;;;;1.15;1.15;;;;;;;-1.99;89.30;98729.31;4970390;28;20054;-74
2024/01/12 08:10:58;;;;;;;0.50;0.50;;;;;;;-2.05;90.10;98727.03;4966447;28;20381;-74
2024/01/12 08:13:26;;;;;;;0.90;0.90;;;;;;;-2.04;90.28;98726.94;4949389;28;20046;-74
2024/01/12 08:15:54;;;;;;;1.35;1.35;;;;;;;-2.06;90.68;98722.72;4968437;28;20043;-73
2024/01/12 08:18:22;;;;;;;0.40;0.40;;;;;;;-2.04;90.99;98723.50;4969096;28;20398;-74
2024/01/12 08:20:50;;;;;;;1.10;1.10;;;;;;;-2.08;91.50;98722.84;4968295;28;20047;-74
2024/01/12 08:23:18;;;;;;;0.95;0.95;;;;;;;-2.06;91.76;98730.56;4961460;28;20046;-74
2024/01/12 08:25:49;;;;;;;0.82;0.82;;;;;;;-2.09;91.96;98721.16;4971592;28;20046;-73
2024/01/12 08:28:16;;;;;;;0.93;0.93;;;;;;;-2.02;91.65;98730.31;4969695;28;20053;-74
2024/01/12 08:30:44;;;;;;;0.65;0.65;;;;;;;-2.06;91.94;98731.41;4969744;28;20497;-74
2024/01/12 08:33:12;;;;;;;1.42;1.42;;;;;;;-2.07;92.26;98721.88;4966642;28;20043;-74
2024/01/12 08:35:40;;;;;;;0.85;0.85;;;;;;;-2.02;91.92;98717.25;4966830;28;20043;-73
2024/01/12 08:38:07;;;;;;;0.95;0.95;;;;;;;-1.98;91.76;98717.94;4968391;28;20142;-72
2024/01/12 08:40:37;;;;;;;0.90;0.90;;;;;;;-2.03;91.95;98720.78;4963833;28;20046;-73
2024/01/12 08:43:06;;;;;;;1.00;1.00;;;;;;;-2.05;92.23;98722.66;4970330;28;20054;-73
2024/01/12 08:45:35;;;;;;;1.10;1.10;;;;;;;-2.02;92.42;98719.88;4964659;28;20045;-73
2024/01/12 08:48:02;;;;;;;1.02;1.02;;;;;;;-2.01;92.24;98731.16;4966712;28;20051;-73
2024/01/12 08:50:30;;;;;;;1.13;1.13;;;;;;;-2.02;92.63;98727.72;4969391;28;20053;-73
2024/01/12 08:52:58;;;;;;;0.30;0.30;;;;;;;-1.99;92.53;98738.00;4967047;28;20049;-73
2024/01/12 08:55:26;;;;;;;1.25;1.25;;;;;;;-1.94;92.34;98743.78;4971762;28;20070;-73
2024/01/12 08:57:53;;;;;;;0.88;0.88;;;;;;;-1.94;91.99;98742.94;4963854;28;20054;-73
2024/01/12 09:00:23;;;;;;;0.98;0.98;;;;;;;-1.92;92.16;98739.31;4973333;28;20042;-73
2024/01/12 09:02:50;;;;;;;0.93;0.93;;;;;;;-1.92;92.15;98744.56;4969809;28;20053;-73
2024/01/12 09:05:18;;;;;;;0.90;0.90;;;;;;;-1.88;92.36;98735.63;4966922;28;20054;-73
2024/01/12 09:07:46;;;;;;;1.05;1.05;;;;;;;-1.82;92.23;98750.09;4972919;28;20038;-73
2024/01/12 09:10:14;;;;;;;1.05;1.05;;;;;;;-1.80;92.16;98752.63;4968786;28;20047;-73
2024/01/12 09:12:41;;;;;;;0.95;0.95;;;;;;;-1.79;92.01;98739.47;4973728;28;20145;-72
2024/01/12 09:15:10;;;;;;;0.98;0.98;;;;;;;-1.77;92.33;98740.22;4968447;28;20053;-73
2024/01/12 09:17:40;;;;;;;0.80;0.80;;;;;;;-1.69;92.15;98747.63;4970388;28;20039;-73
2024/01/12 09:20:09;;;;;;;1.05;1.05;;;;;;;-1.77;91.93;98752.47;4963781;28;20047;-73
2024/01/12 09:22:36;;;;;;;0.98;0.98;;;;;;;-1.68;91.53;98744.06;4968827;28;20043;-73
2024/01/12 09:25:05;;;;;;;1.40;1.40;;;;;;;-1.67;91.10;98748.38;4965783;28;20043;-73
2024/01/12 09:27:34;;;;;;;1.15;1.15;;;;;;;-1.72;91.16;98745.16;4969408;28;20509;-73
2024/01/12 09:30:01;;;;;;;1.00;1.00;;;;;;;-1.72;91.52;98743.41;4964691;28;20051;-72
2024/01/12 09:32:29;;;;;;;0.75;0.75;;;;;;;-1.69;91.62;98750.22;4968846;28;20082;-73
2024/01/12 09:34:59;;;;;;;1.02;1.02;;;;;;;-1.74;91.75;98747.88;4974118;28;20086;-73
2024/01/12 09:37:27;;;;;;;0.90;0.90;;;;;;;-1.76;91.88;98749.72;4971431;28;20045;-73
2024/01/12 09:39:55;;;;;;;1.15;1.15;;;;;;;-1.76;92.04;98741.88;4969114;28;20045;-73
2024/01/12 09:42:25;;;;;;;1.02;1.02;;;;;;;-1.73;91.97;98748.72;4970918;28;20086;-73
2024/01/12 09:44:52;;;;;;;0.98;0.98;;;;;;;-1.70;91.69;98754.63;4972194;28;20057;-73
2024/01/12 09:47:33;;;;;;;1.20;1.20;;;;;;;-1.69;92.05;98742.38;4969885;28;20043;-73
2024/01/12 09:50:03;;;;;;;0.95;0.95;;;;;;;-1.67;92.06;98749.22;4973983;28;20055;-72
2024/01/12 09:52:31;;;;;;;1.08;1.08;;;;;;;-1.63;92.13;98744.63;4964941;28;20036;-73
2024/01/12 09:54:59;;;;;;;1.10;1.10;;;;;;;-1.58;92.05;98750.44;4969752;28;20054;-73
2024/01/12 09:57:26;;;;;;;0.85;0.85;;;;;;;-1.59;91.83;98738.28;4966577;28;20046;-73
2024/01/12 09:59:55;;;;;;;1.15;1.15;;;;;;;-1.63;91.79;98731.53;4962479;28;20566;-73
2024/01/12 10:02:22;;;;;;;0.95;0.95;;;;;;;-1.63;91.65;98731.53;4969005;28;20156;-73
2024/01/12 10:04:50;;;;;;;1.00;1.00;;;;;;;-1.59;91.87;98733.06;4965936;28;20046;-73
2024/01/12 10:07:19;;;;;;;1.15;1.15;;;;;;;-1.59;92.03;98718.19;4970134;28;20069;-72
2024/01/12 10:09:47;;;;;;;0.90;0.90;;;;;;;-1.59;91.51;98719.97;4966845;28;20051;-73
2024/01/12 10:12:15;;;;;;;0.85;0.85;;;;;;;-1.57;91.54;98720.72;4972045;28;20050;-72
2024/01/12 10:14:42;;;;;;;0.35;0.35;;;;;;;-1.55;91.52;98714.44;4965765;28;20395;-72
2024/01/12 10:17:11;;;;;;;1.05;1.05;;;;;;;-1.50;91.02;98716.81;4967887;28;20042;-72
2024/01/12 10:19:38;;;;;;;0.95;0.95;;;;;;;-1.52;90.92;98705.56;4968443;28;20072;-72
2024/01/12 10:22:06;;;;;;;0.98;0.98;;;;;;;-1.48;90.88;98697.47;4970628;28;20088;-72
2024/01/12 10:24:37;;;;;;;1.13;1.13;;;;;;;-1.50;90.76;98701.94;4972701;28;20047;-72
2024/01/12 10:27:05;;;;;;;0.70;0.70;;;;;;;-1.50;90.26;98696.72;4967678;28;20043;-72
2024/01/12 10:29:36;;;;;;;0.98;0.98;;;;;;;-1.44;90.35;98692.88;4972231;28;20100;-74
2024/01/12 10:32:04;;;;;;;0.30;0.30;;;;;;;-1.42;90.63;98685.75;4965946;28;20055;-74
2024/01/12 10:34:33;;;;;;;1.08;1.08;;;;;;;-1.38;90.34;98687.28;4971179;28;20065;-74
2024/01/12 10:37:03;;;;;;;1.52;1.52;;;;;;;-1.38;89.79;98676.81;4967665;28;20046;-74
2024/01/12 10:39:30;;;;;;;1.02;1.02;;;;;;;-1.26;89.26;98683.91;4971031;28;20053;-74
2024/01/12 10:42:00;;;;;;;1.33;1.33;;;;;;;-1.27;89.81;98686.63;4969426;28;20534;-74
2024/01/12 10:44:28;;;;;;;1.17;1.17;;;;;;;-1.18;89.77;98673.81;4972849;28;20138;-74
2024/01/12 10:46:59;;;;;;;0.30;0.30;;;;;;;-1.13;89.64;98674.34;4964244;28;20422;-74
2024/01/12 10:49:27;;;;;;;1.42;1.42;;;;;;;-1.24;88.87;98674.16;4951893;28;20455;-73
2024/01/12 10:51:59;;;;;;;0.30;0.30;;;;;;;-1.26;88.96;98670.81;4966162;28;20398;-74
2024/01/12 10:54:29;;;;;;;1.00;1.00;;;;;;;-1.18;89.13;98663.31;4971914;28;20073;-74
2024/01/12 10:56:57;;;;;;;0.82;0.82;;;;;;;-1.19;89.36;98666.88;4958368;28;20043;-72
2024/01/12 10:59:26;;;;;;;0.95;0.95;;;;;;;-1.17;89.04;98672.88;4970920;28;20052;-74
2024/01/12 11:01:54;;;;;;;1.13;1.13;;;;;;;-1.20;88.55;98674.81;4968275;28;20055;-74
2024/01/12 11:04:22;;;;;;;1.08;1.08;;;;;;;-1.19;88.88;98666.88;4970894;28;20046;-72
2024/01/12 11:06:55;;;;;;;1.17;1.17;;;;;;;-1.16;89.01;98669.31;4966014;28;20048;-74
2024/01/12 11:09:27;;;;;;;1.02;1.02;;;;;;;-1.18;88.56;98662.47;4965091;28;20622;-74
2024/01/12 11:11:57;;;;;;;0.25;0.25;;;;;;;-1.22;88.37;98658.34;4972462;28;20126;-72
2024/01/12 11:14:26;;;;;;;0.20;0.20;;;;;;;-1.21;88.62;98657.44;4972684;28;20046;-72
2024/01/12 11:16:57;;;;;;;0.93;0.93;;;;;;;-1.18;88.56;98649.38;4971826;28;20043;-72
2024/01/12 11:19:25;;;;;;;0.20;0.20;;;;;;;-1.15;88.60;98636.97;4972322;28;20050;-74
2024/01/12 11:22:02;;;;;;;1.25;1.25;;;;;;;-1.13;88.40;98644.69;4970866;28;20049;-72
2024/01/12 11:24:30;;;;;;;0.32;0.32;;;;;;;-1.12;88.38;98646.38;4966978;28;20504;-74
2024/01/12 11:26:58;;;;;;;0.77;0.77;;;;;;;-1.12;88.48;98647.22;4970022;28;20043;-72
2024/01/12 11:29:30;;;;;;;0.40;0.40;;;;;;;-1.03;88.65;98643.19;4968538;28;20394;-73
2024/01/12 11:32:01;;;;;;;1.10;1.10;;;;;;;-1.08;87.92;98636.56;4954044;28;20062;-73
2024/01/12 11:34:31;;;;;;;1.02;1.02;;;;;;;-1.11;87.61;98629.72;4968034;28;20055;-72
2024/01/12 11:36:59;;;;;;;0.40;0.40;;;;;;;-1.08;87.80;98615.59;4969236;28;20434;-73
2024/01/12 11:39:27;;;;;;;0.68;0.68;;;;;;;-1.01;87.98;98611.66;4968995;28;20055;-74